createdAt,value
2023-03-02T00:01:51.203Z,45.60
2023-03-02T00:04:21.833Z,49.50
2023-03-02T00:06:52.236Z,50.70
2023-03-02T00:09:20.318Z,49.00
2023-03-02T00:11:48.478Z,47.80
2023-03-02T00:14:16.550Z,47.30
2023-03-02T00:16:44.726Z,51.40
2023-03-02T00:19:12.800Z,59.50
2023-03-02T00:21:41.809Z,62.00
2023-03-02T00:24:10.159Z,56.60
2023-03-02T00:26:38.539Z,59.80
2023-03-02T00:29:06.812Z,56.70
2023-03-02T00:31:35.253Z,57.00
2023-03-02T00:34:03.770Z,56.00
2023-03-02T00:36:32.459Z,57.40
2023-03-02T00:39:00.638Z,78.70
2023-03-02T00:41:29.205Z,67.90
2023-03-02T00:43:58.001Z,56.40
2023-03-02T00:46:28.742Z,60.90
2023-03-02T00:48:57.102Z,56.70
2023-03-02T00:51:25.386Z,47.60
2023-03-02T00:53:53.553Z,52.60
2023-03-02T00:56:21.926Z,48.00
2023-03-02T00:58:50.612Z,53.00
2023-03-02T01:01:19.498Z,53.20
2023-03-02T01:03:50.746Z,53.70
2023-03-02T01:06:20.908Z,53.20
2023-03-02T01:08:49.352Z,57.20
2023-03-02T01:11:20.617Z,61.60
2023-03-02T01:13:50.411Z,61.60
2023-03-02T01:16:18.747Z,56.90
2023-03-02T01:18:47.157Z,56.20
2023-03-02T01:21:16.558Z,60.00
2023-03-02T01:23:44.738Z,63.30
2023-03-02T01:26:12.911Z,64.10
2023-03-02T01:28:41.074Z,62.80
2023-03-02T01:31:09.529Z,51.30
2023-03-02T01:33:37.730Z,58.60
2023-03-02T01:36:06.609Z,52.70
2023-03-02T01:38:34.843Z,49.70
2023-03-02T01:41:03.061Z,50.30
2023-03-02T01:43:31.234Z,49.70
2023-03-02T01:46:20.709Z,56.40
2023-03-02T01:49:04.138Z,95.00
2023-03-02T01:51:46.139Z,95.00
2023-03-02T01:54:23.160Z,105.80
2023-03-02T01:56:59.212Z,89.40
2023-03-02T01:59:28.567Z,74.90
2023-03-02T02:01:59.197Z,72.40
2023-03-02T02:04:29.414Z,62.20
2023-03-02T02:07:02.176Z,59.60
2023-03-02T02:09:33.840Z,68.60
2023-03-02T02:12:02.861Z,56.30
2023-03-02T02:14:31.015Z,60.20
2023-03-02T02:16:59.244Z,52.60
2023-03-02T02:19:49.882Z,57.80
2023-03-02T02:22:30.244Z,52.80
2023-03-02T02:25:02.102Z,66.20
2023-03-02T02:27:34.267Z,79.10
2023-03-02T02:30:04.773Z,66.30
2023-03-02T02:32:35.755Z,68.10
2023-03-02T02:35:22.974Z,70.70
2023-03-02T02:37:54.949Z,70.20
2023-03-02T02:40:41.004Z,66.00
2023-03-02T02:43:13.621Z,67.10
2023-03-02T02:45:42.131Z,69.30
2023-03-02T02:48:19.447Z,68.50
2023-03-02T02:50:47.708Z,70.30
2023-03-02T02:53:40.984Z,85.90
2023-03-02T02:56:10.998Z,99.20
2023-03-02T02:58:46.147Z,133.60
2023-03-02T03:01:15.897Z,156.90
2023-03-02T03:03:51.514Z,128.90
2023-03-02T03:06:25.897Z,91.60
2023-03-02T03:08:57.795Z,69.80
2023-03-02T03:11:33.051Z,52.00
2023-03-02T03:14:16.134Z,56.80
2023-03-02T03:16:47.085Z,57.30
2023-03-02T03:19:23.526Z,60.00
2023-03-02T03:21:54.456Z,68.10
2023-03-02T03:24:24.580Z,57.90
2023-03-02T03:26:54.492Z,55.20
2023-03-02T03:29:25.244Z,50.70
2023-03-02T03:31:56.192Z,56.80
2023-03-02T03:34:25.464Z,75.60
2023-03-02T03:36:54.038Z,68.20
2023-03-02T03:39:22.436Z,90.10
2023-03-02T03:41:50.950Z,192.40
2023-03-02T03:44:19.272Z,219.40
2023-03-02T03:46:47.445Z,164.60
2023-03-02T03:49:16.025Z,102.00
2023-03-02T03:51:44.713Z,98.60
2023-03-02T03:54:13.084Z,86.10
2023-03-02T03:56:45.249Z,71.00
2023-03-02T03:59:19.872Z,76.30
2023-03-02T04:01:55.035Z,85.70
2023-03-02T04:04:28.507Z,93.00
2023-03-02T04:06:57.097Z,83.50
2023-03-02T04:09:26.694Z,84.20
2023-03-02T04:11:56.093Z,93.20
2023-03-02T04:14:25.702Z,119.40
2023-03-02T04:16:55.102Z,126.20
2023-03-02T04:19:25.012Z,118.30
2023-03-02T04:21:58.582Z,84.50
2023-03-02T04:24:27.806Z,93.10
2023-03-02T04:26:58.232Z,83.00
2023-03-02T04:29:28.248Z,175.70
2023-03-02T04:31:57.010Z,85.40
2023-03-02T04:34:26.956Z,73.10
2023-03-02T04:36:55.950Z,80.20
2023-03-02T04:39:24.945Z,66.70
2023-03-02T04:41:54.142Z,68.70
2023-03-02T04:44:22.616Z,58.60
2023-03-02T04:46:51.447Z,57.40
2023-03-02T04:49:20.603Z,63.40
2023-03-02T04:51:50.108Z,61.90
2023-03-02T04:54:22.810Z,67.60
2023-03-02T04:56:51.889Z,65.80
2023-03-02T04:59:24.165Z,64.20
2023-03-02T05:01:54.720Z,66.20
2023-03-02T05:04:23.169Z,71.90
2023-03-02T05:06:51.529Z,63.90
2023-03-02T05:09:21.317Z,66.80
2023-03-02T05:11:49.408Z,74.40
2023-03-02T05:14:17.478Z,79.50
2023-03-02T05:16:45.655Z,70.80
2023-03-02T05:19:13.826Z,88.10
2023-03-02T05:21:42.100Z,87.70
2023-03-02T05:24:13.134Z,87.20
2023-03-02T05:26:41.923Z,85.20
2023-03-02T05:29:10.095Z,97.50
2023-03-02T05:31:43.553Z,92.00
2023-03-02T05:34:13.961Z,64.80
2023-03-02T05:36:42.702Z,55.70
2023-03-02T05:39:11.181Z,57.80
2023-03-02T05:41:39.454Z,65.30
2023-03-02T05:44:09.776Z,70.30
2023-03-02T05:46:38.542Z,62.50
2023-03-02T05:49:06.952Z,70.00
2023-03-02T05:51:35.129Z,64.70
2023-03-02T05:54:03.290Z,63.90
2023-03-02T05:56:32.005Z,68.60
2023-03-02T05:59:00.558Z,63.10
2023-03-02T06:01:28.823Z,66.40
2023-03-02T06:03:56.997Z,69.50
2023-03-02T06:06:25.171Z,77.60
2023-03-02T06:08:53.344Z,68.20
2023-03-02T06:11:21.515Z,68.60
2023-03-02T06:13:49.698Z,69.60
2023-03-02T06:16:17.916Z,57.50
2023-03-02T06:18:46.131Z,56.40
2023-03-02T06:21:14.609Z,70.10
2023-03-02T06:23:42.791Z,71.90
2023-03-02T06:26:12.014Z,71.00
2023-03-02T06:28:51.860Z,72.50
2023-03-02T06:31:22.188Z,71.70
2023-03-02T06:33:50.640Z,77.60
2023-03-02T06:36:18.989Z,82.00
2023-03-02T06:38:47.380Z,107.00
2023-03-02T06:41:16.178Z,78.70
2023-03-02T06:43:44.565Z,69.70
2023-03-02T06:46:12.889Z,85.00
2023-03-02T06:48:41.505Z,186.70
2023-03-02T06:51:09.779Z,202.10
2023-03-02T06:53:38.267Z,139.80
2023-03-02T06:56:07.401Z,106.40
2023-03-02T06:58:36.433Z,77.70
2023-03-02T07:01:04.881Z,73.40
2023-03-02T07:03:33.573Z,70.40
2023-03-02T07:06:02.501Z,78.20
2023-03-02T07:08:30.770Z,60.00
2023-03-02T07:10:58.975Z,65.40
2023-03-02T07:13:27.425Z,63.30
2023-03-02T07:15:55.601Z,66.10
2023-03-02T07:18:23.988Z,72.10
2023-03-02T07:20:52.435Z,76.20
2023-03-02T07:23:20.529Z,90.90
2023-03-02T07:25:48.689Z,112.00
2023-03-02T07:28:16.964Z,97.80
2023-03-02T07:30:45.176Z,79.40
2023-03-02T07:33:13.624Z,81.90
2023-03-02T07:35:41.746Z,79.90
2023-03-02T07:38:09.961Z,136.80
2023-03-02T07:40:44.531Z,141.30
2023-03-02T07:43:12.758Z,160.70
2023-03-02T07:45:41.033Z,177.70
2023-03-02T07:48:09.207Z,162.10
2023-03-02T07:50:37.589Z,150.30
2023-03-02T07:53:05.754Z,117.50
2023-03-02T07:55:33.933Z,86.70
2023-03-02T07:58:02.102Z,64.20
2023-03-02T08:00:30.281Z,55.40
2023-03-02T08:02:58.465Z,55.20
2023-03-02T08:05:26.822Z,56.80
2023-03-02T08:07:55.095Z,57.40
2023-03-02T08:10:23.281Z,55.50
2023-03-02T08:12:51.458Z,53.20
2023-03-02T08:15:19.615Z,56.90
2023-03-02T08:17:48.401Z,53.20
2023-03-02T08:20:16.575Z,68.90
2023-03-02T08:22:44.649Z,57.60
2023-03-02T08:25:12.925Z,63.70
2023-03-02T08:27:41.194Z,60.20
2023-03-02T08:30:10.888Z,51.20
2023-03-02T08:32:39.394Z,51.80
2023-03-02T08:35:08.594Z,50.30
2023-03-02T08:37:36.955Z,54.10
2023-03-02T08:40:05.951Z,58.30
2023-03-02T08:42:34.135Z,46.40
2023-03-02T08:45:02.411Z,49.70
2023-03-02T08:47:30.668Z,51.20
2023-03-02T08:49:58.945Z,49.00
2023-03-02T08:52:27.216Z,55.20
2023-03-02T08:54:55.454Z,46.60
2023-03-02T08:57:23.671Z,44.00
2023-03-02T08:59:52.956Z,43.70
2023-03-02T09:02:21.134Z,50.70
2023-03-02T09:04:49.383Z,43.60
2023-03-02T09:07:17.573Z,40.40
2023-03-02T09:09:46.066Z,41.80
2023-03-02T09:12:14.241Z,41.90
2023-03-02T09:14:42.408Z,34.80
2023-03-02T09:17:13.250Z,37.70
2023-03-02T09:19:44.505Z,40.40
2023-03-02T09:22:13.065Z,37.10
2023-03-02T09:24:41.233Z,36.00
2023-03-02T09:27:09.409Z,40.10
2023-03-02T09:29:37.580Z,40.30
2023-03-02T09:32:05.835Z,34.20
2023-03-02T09:34:34.237Z,35.60
2023-03-02T09:37:02.610Z,41.00
2023-03-02T09:39:30.884Z,35.10
2023-03-02T09:42:11.242Z,32.60
2023-03-02T09:44:57.641Z,28.20
2023-03-02T09:47:35.978Z,32.30
2023-03-02T09:50:27.469Z,39.00
2023-03-02T09:53:24.110Z,34.50
2023-03-02T09:55:55.353Z,36.60
2023-03-02T09:58:25.775Z,36.40
2023-03-02T10:00:53.949Z,31.70
2023-03-02T10:03:24.244Z,33.90
2023-03-02T10:05:57.302Z,33.70
2023-03-02T10:08:28.399Z,34.20
2023-03-02T10:11:12.852Z,33.50
2023-03-02T10:13:47.552Z,34.00
2023-03-02T10:16:34.897Z,31.10
2023-03-02T10:19:25.246Z,30.00
2023-03-02T10:22:03.106Z,30.60
2023-03-02T10:24:57.581Z,32.50
2023-03-02T10:27:50.970Z,33.40
2023-03-02T10:30:37.910Z,35.60
2023-03-02T10:33:14.297Z,37.00
2023-03-02T10:35:47.954Z,32.20
2023-03-02T10:38:18.661Z,34.30
2023-03-02T10:41:00.327Z,32.60
2023-03-02T10:43:37.620Z,31.90
2023-03-02T10:46:11.348Z,33.20
2023-03-02T10:48:55.550Z,28.50
2023-03-02T10:51:23.849Z,30.20
2023-03-02T10:54:07.077Z,32.20
2023-03-02T10:56:35.654Z,27.20
2023-03-02T10:59:29.843Z,31.80
2023-03-02T11:02:23.506Z,40.20
2023-03-02T11:05:00.546Z,45.20
2023-03-02T11:07:29.989Z,42.80
2023-03-02T11:10:18.847Z,46.10
2023-03-02T11:12:49.143Z,44.60
2023-03-02T11:17:46.854Z,48.20
2023-03-02T11:20:24.132Z,46.30
2023-03-02T11:22:59.860Z,49.10
2023-03-02T11:25:40.439Z,56.50
2023-03-02T11:28:17.366Z,53.80
2023-03-02T11:30:49.186Z,52.50
2023-03-02T11:33:28.867Z,56.20
2023-03-02T11:36:03.340Z,58.60
2023-03-02T11:38:46.973Z,70.70
2023-03-02T11:41:31.672Z,74.40
2023-03-02T11:44:18.239Z,64.60
2023-03-02T11:46:49.664Z,64.20
2023-03-02T11:49:24.295Z,98.10
2023-03-02T11:55:06.329Z,72.90
2023-03-02T11:57:39.571Z,75.10
2023-03-02T12:00:38.714Z,79.40
2023-03-02T12:03:06.897Z,96.00
2023-03-02T12:05:38.943Z,78.80
2023-03-02T12:08:19.340Z,83.80
2023-03-02T12:11:00.028Z,100.20
2023-03-02T12:13:33.691Z,89.70
2023-03-02T12:16:02.490Z,85.00
2023-03-02T12:18:42.526Z,90.30
2023-03-02T12:21:18.507Z,80.90
2023-03-02T12:23:49.712Z,85.80
2023-03-02T12:26:21.165Z,84.20
2023-03-02T12:29:09.931Z,85.20
2023-03-02T12:31:48.517Z,82.30
2023-03-02T12:34:35.264Z,79.30
2023-03-02T12:37:30.774Z,82.20
2023-03-02T12:40:26.092Z,76.00
2023-03-02T12:43:00.317Z,81.10
2023-03-02T12:45:50.904Z,78.70
2023-03-02T12:48:29.592Z,78.20
2023-03-02T12:51:01.850Z,81.30
2023-03-02T12:53:31.162Z,72.10
2023-03-02T12:55:59.570Z,70.60
2023-03-02T12:58:29.449Z,75.90
2023-03-02T13:01:02.552Z,68.10
2023-03-02T13:03:31.734Z,65.70
2023-03-02T13:06:15.783Z,67.70
2023-03-02T13:08:46.386Z,66.00
2023-03-02T13:11:21.830Z,68.70
2023-03-02T13:13:50.093Z,73.90
2023-03-02T13:16:33.866Z,70.00
2023-03-02T13:19:04.284Z,65.60
2023-03-02T13:24:31.554Z,59.70
2023-03-02T13:27:05.856Z,61.10
2023-03-02T13:29:34.571Z,59.90
2023-03-02T13:32:19.289Z,60.60
2023-03-02T13:34:59.259Z,58.10
2023-03-02T13:37:37.840Z,58.10
2023-03-02T13:40:40.023Z,56.70
2023-03-02T13:43:21.735Z,55.70
2023-03-02T13:46:05.242Z,53.40
2023-03-02T13:48:33.956Z,50.00
2023-03-02T13:51:18.941Z,53.90
2023-03-02T13:53:56.917Z,52.90
2023-03-02T13:56:38.238Z,51.70
2023-03-02T13:59:14.769Z,53.30
2023-03-02T14:01:44.297Z,50.10
2023-03-02T14:04:14.303Z,49.00
2023-03-02T14:06:42.560Z,47.00
2023-03-02T14:09:10.936Z,44.70
2023-03-02T14:11:41.553Z,43.70
2023-03-02T14:14:14.762Z,46.50
2023-03-02T14:16:43.131Z,42.70
2023-03-02T14:19:13.887Z,43.80
2023-03-02T14:21:43.556Z,42.80
2023-03-02T14:24:12.056Z,45.40
2023-03-02T14:26:45.183Z,41.30
2023-03-02T14:29:43.008Z,43.60
2023-03-02T14:32:13.359Z,56.30
2023-03-02T14:37:15.745Z,41.00
2023-03-02T14:39:47.154Z,38.10
2023-03-02T14:42:17.081Z,39.00
2023-03-02T14:44:48.736Z,39.10
2023-03-02T14:47:19.584Z,41.20
2023-03-02T14:49:49.486Z,38.80
2023-03-02T14:52:23.632Z,42.10
2023-03-02T14:54:58.040Z,38.60
2023-03-02T14:57:28.544Z,42.10
2023-03-02T15:00:00.063Z,48.40
2023-03-02T15:02:28.866Z,39.60
2023-03-02T15:04:57.856Z,44.00
2023-03-02T15:07:28.215Z,47.70
2023-03-02T15:09:58.312Z,52.00
2023-03-02T15:12:26.440Z,51.70
2023-03-02T15:14:54.666Z,48.00
2023-03-02T15:17:23.253Z,50.80
2023-03-02T15:19:51.616Z,48.60
2023-03-02T15:22:19.810Z,54.40
2023-03-02T15:24:47.959Z,52.60
2023-03-02T15:27:16.137Z,53.50
2023-03-02T15:29:46.154Z,51.40
2023-03-02T15:32:15.212Z,52.60
2023-03-02T15:34:44.129Z,50.90
2023-03-02T15:37:12.835Z,49.70
2023-03-02T15:39:41.617Z,51.50
2023-03-02T15:42:10.813Z,52.90
2023-03-02T15:47:08.367Z,51.10
2023-03-02T15:49:36.643Z,52.00
2023-03-02T15:52:05.029Z,47.50
2023-03-02T15:54:33.729Z,48.90
2023-03-02T15:57:01.875Z,47.30
2023-03-02T15:59:31.394Z,47.70
2023-03-02T16:01:59.894Z,49.70
2023-03-02T16:04:32.743Z,51.30
2023-03-02T16:07:01.221Z,48.80
2023-03-02T16:09:31.106Z,53.80
2023-03-02T16:11:59.311Z,57.70
2023-03-02T16:14:27.437Z,46.80
2023-03-02T16:16:55.703Z,48.60
2023-03-02T16:19:24.243Z,48.80
2023-03-02T16:21:52.409Z,55.50
2023-03-02T16:24:20.794Z,43.20
2023-03-02T16:26:51.130Z,54.30
2023-03-02T16:29:19.238Z,45.70
2023-03-02T16:31:47.983Z,44.70
2023-03-02T16:34:17.897Z,46.80
2023-03-02T16:36:46.053Z,58.80
2023-03-02T16:39:15.152Z,55.40
2023-03-02T16:41:44.142Z,45.40
2023-03-02T16:44:14.772Z,45.60
2023-03-02T16:46:43.964Z,54.20
2023-03-02T16:49:13.573Z,39.20
2023-03-02T16:51:42.982Z,46.90
2023-03-02T16:54:15.529Z,46.90
2023-03-02T16:56:45.579Z,48.50
2023-03-02T16:59:13.937Z,45.50
2023-03-02T17:01:42.296Z,39.70
2023-03-02T17:04:10.590Z,40.60
2023-03-02T17:06:40.161Z,50.50
2023-03-02T17:09:11.333Z,44.40
2023-03-02T17:11:40.633Z,42.20
2023-03-02T17:14:08.822Z,39.80
2023-03-02T17:16:36.987Z,40.00
2023-03-02T17:19:05.046Z,40.10
2023-03-02T17:21:33.322Z,48.30
2023-03-02T17:24:01.493Z,43.90
2023-03-02T17:26:29.973Z,45.00
2023-03-02T17:28:58.149Z,45.80
2023-03-02T17:31:26.461Z,44.40
2023-03-02T17:33:54.697Z,46.20
2023-03-02T17:36:22.831Z,41.10
2023-03-02T17:38:52.062Z,47.10
2023-03-02T17:41:20.337Z,42.30
2023-03-02T17:43:48.507Z,42.10
2023-03-02T17:46:23.295Z,46.30
2023-03-02T17:48:54.478Z,46.70
2023-03-02T17:51:23.676Z,47.10
2023-03-02T17:53:52.767Z,45.10
2023-03-02T17:56:24.309Z,46.40
2023-03-02T17:58:56.587Z,42.90
2023-03-02T18:01:25.478Z,51.50
2023-03-02T18:03:53.781Z,47.50
2023-03-02T18:06:22.240Z,48.40
2023-03-02T18:08:51.954Z,48.70
2023-03-02T18:11:22.758Z,48.00
2023-03-02T18:13:51.661Z,43.60
2023-03-02T18:16:19.789Z,42.10
2023-03-02T18:18:48.591Z,45.50
2023-03-02T18:21:18.209Z,52.50
2023-03-02T18:23:47.220Z,46.30
2023-03-02T18:26:15.599Z,48.30
2023-03-02T18:28:43.775Z,53.10
2023-03-02T18:31:14.721Z,49.50
2023-03-02T18:33:43.181Z,50.20
2023-03-02T18:36:11.662Z,50.20
2023-03-02T18:38:40.651Z,47.00
2023-03-02T18:41:10.153Z,49.00
2023-03-02T18:43:40.691Z,47.40
2023-03-02T18:48:41.431Z,48.30
2023-03-02T18:51:09.602Z,47.50
2023-03-02T18:53:38.288Z,47.10
2023-03-02T18:56:06.969Z,52.00
2023-03-02T18:58:35.552Z,53.80
2023-03-02T19:01:04.488Z,50.70
2023-03-02T19:03:35.287Z,46.60
2023-03-02T19:06:04.276Z,47.00
2023-03-02T19:08:32.647Z,51.50
2023-03-02T19:11:01.537Z,50.90
2023-03-02T19:13:29.712Z,46.50
2023-03-02T19:15:58.326Z,48.50
2023-03-02T19:18:26.569Z,47.90
2023-03-02T19:20:55.156Z,52.40
2023-03-02T19:23:24.042Z,49.20
2023-03-02T19:25:52.423Z,46.00
2023-03-02T19:28:21.884Z,53.50
2023-03-02T19:30:51.018Z,53.80
2023-03-02T19:33:19.398Z,56.70
2023-03-02T19:35:47.611Z,57.40
2023-03-02T19:38:15.839Z,51.60
2023-03-02T19:40:44.007Z,53.40
2023-03-02T19:43:12.381Z,58.30
2023-03-02T19:45:40.797Z,50.00
2023-03-02T19:48:13.855Z,47.50
2023-03-02T19:50:43.574Z,48.80
2023-03-02T19:53:14.163Z,52.80
2023-03-02T19:58:17.231Z,50.30
2023-03-02T20:00:46.325Z,49.20
2023-03-02T20:03:14.866Z,52.50
2023-03-02T20:05:43.236Z,50.90
2023-03-02T20:08:11.521Z,54.80
2023-03-02T20:10:42.714Z,58.00
2023-03-02T20:13:11.545Z,58.90
2023-03-02T20:15:45.346Z,54.40
2023-03-02T20:18:19.662Z,57.90
2023-03-02T20:20:48.839Z,50.50
2023-03-02T20:23:18.083Z,54.90
2023-03-02T20:25:48.343Z,53.30
2023-03-02T20:28:22.670Z,56.70
2023-03-02T20:30:54.725Z,57.50
2023-03-02T20:33:26.617Z,54.80
2023-03-02T20:35:55.338Z,58.20
2023-03-02T20:38:45.590Z,50.80
2023-03-02T20:41:14.990Z,71.70
2023-03-02T20:43:43.581Z,59.60
2023-03-02T20:46:30.376Z,55.80
2023-03-02T20:48:59.071Z,60.60
2023-03-02T20:51:27.647Z,57.30
2023-03-02T20:53:56.667Z,60.90
2023-03-02T20:56:25.020Z,58.80
2023-03-02T20:58:53.196Z,50.10
2023-03-02T21:01:23.899Z,50.50
2023-03-02T21:06:20.271Z,59.60
2023-03-02T21:08:49.156Z,52.30
2023-03-02T21:11:19.827Z,51.90
2023-03-02T21:13:48.790Z,54.10
2023-03-02T21:16:26.778Z,57.70
2023-03-02T21:18:56.485Z,62.40
2023-03-02T21:21:40.422Z,57.60
2023-03-02T21:24:11.845Z,50.90
2023-03-02T21:26:41.779Z,51.70
2023-03-02T21:29:12.325Z,53.50
2023-03-02T21:31:42.435Z,55.50
2023-03-02T21:34:14.025Z,56.90
2023-03-02T21:36:43.517Z,51.60
2023-03-02T21:39:12.904Z,56.70
2023-03-02T21:41:41.066Z,61.30
2023-03-02T21:44:09.565Z,56.80
2023-03-02T21:46:38.581Z,66.00
2023-03-02T21:49:07.225Z,57.80
2023-03-02T21:51:35.596Z,68.30
2023-03-02T21:54:03.877Z,66.20
2023-03-02T21:56:32.042Z,67.90
2023-03-02T21:59:00.350Z,68.00
2023-03-02T22:01:30.022Z,57.30
2023-03-02T22:03:59.505Z,53.90
2023-03-02T22:06:30.677Z,55.20
2023-03-02T22:08:59.357Z,52.80
2023-03-02T22:11:30.292Z,55.20
2023-03-02T22:14:01.536Z,51.60
2023-03-02T22:16:36.295Z,60.30
2023-03-02T22:19:20.104Z,58.20
2023-03-02T22:21:49.621Z,59.80
2023-03-02T22:24:30.074Z,59.50
2023-03-02T22:26:58.752Z,64.80
2023-03-02T22:29:33.649Z,153.40
2023-03-02T22:32:15.936Z,108.20
2023-03-02T22:34:45.803Z,71.60
2023-03-02T22:37:20.017Z,55.50
2023-03-02T22:39:50.042Z,48.60
2023-03-02T22:42:20.564Z,50.90
2023-03-02T22:47:39.226Z,45.40
2023-03-02T22:50:29.411Z,45.80
2023-03-02T22:52:58.713Z,44.20
2023-03-02T22:55:40.116Z,42.90
2023-03-02T22:58:28.846Z,48.00
2023-03-02T23:01:01.594Z,54.00
2023-03-02T23:03:38.891Z,50.00
2023-03-02T23:06:35.449Z,48.00
2023-03-02T23:09:05.594Z,48.90
2023-03-02T23:11:37.724Z,48.50
2023-03-02T23:14:28.848Z,45.40
2023-03-02T23:17:00.916Z,44.50
2023-03-02T23:19:30.925Z,51.70
2023-03-02T23:21:59.715Z,40.60
2023-03-02T23:24:27.982Z,46.60
2023-03-02T23:26:56.361Z,43.00
2023-03-02T23:29:24.431Z,37.50
2023-03-02T23:31:52.767Z,38.50
2023-03-02T23:34:21.084Z,38.40
2023-03-02T23:36:49.356Z,40.00
2023-03-02T23:39:17.844Z,38.80
2023-03-02T23:41:46.054Z,41.00
2023-03-02T23:44:14.385Z,43.70
2023-03-02T23:46:42.554Z,39.90
2023-03-02T23:49:10.826Z,40.20
2023-03-02T23:51:39.204Z,40.30
2023-03-02T23:54:07.579Z,41.50
2023-03-02T23:56:35.852Z,38.50
2023-03-02T23:59:04.137Z,37.00
